Enter the Airport ICAO Code

Search by Airport or City

Current Weather

KMFE | McAllen Miller International Airport

McAllen, Texas, United States

Last Update 53 Minutes Ago

Completely Cloudy Sky

Temperature of 23 ºC

Moderate Winds from SouthEast with Gusts

Temperature

23 ºC

Dew Point Temperature

19 ºC

Relative Humidity

78.33 %

Wind Direction

SouthEast (140º, Without Significant Variations)

Wind Velocity

20 km/h (11 kt)

Gusts

31 km/h (17 kt)

Visibility

Greater than 10 Miles

Sea Level Pressure

29.87 inHg (Inches of Mercury)

Layers of Clouds

90% to 100% of Sky Covered from 396 mts (1300 ft) Above Ground Level.

METAR KMFE 270353Z 14011G17KT 10SM OVC013 23/19 A2987 RMK AO2 SLP114 T02330194

Weather Forecast

KMFE | McAllen Miller International Airport

McAllen, Texas, United States

Forecast valid for the next 19 Hours

From now on it is expected:

Mostly Cloudy Sky

Light to Moderate Winds from SouthEast

In 10 hours it is expected the begining of:

Moderate Winds from SouthEast with Gusts

Maximum Temperature

No Data

Minimum Temperature

No Data

TAF KMFE 262322Z 2700/2724 14012KT P6SM BKN250 FM270300 15009KT P6SM BKN015 FM271500 15014G22KT P6SM BKN025 FM271700 15015G25KT P6SM BKN050